Heaton Chapel, United Kingdom
Current Conditions -  °F | °C
As of 7:20 PM on Thursday 27 Nov 2014 (Local Time) from EGCC Reporting Station
Haze Haze  
Wind Chill: 41°   Ceiling: Unl
Heat Index: 41°   Visibility: 2mi
Dew Point: 41°   Wind: 3mph
Humidity: 100%   Direction: 180°S
Pressure: 29.59"   Gusts: NA
Location:  53.43°N, 2.18°W
Report Text: EGCC 271920Z 18003KT 3300 R23R/1300 BR NSC 05/05 Q1002 BECMG 5000
Loading
Personal Weather Stations






























Interactive Weather Map New forecast layout! Learn more

10-Day Weather Forecast

Advertisements
Track Severe Weather on mobile